Time;durP1;ratioP1;P1;durP2;ratioP2;P2;SDS_P1;SDS_P2;PMS_P1;PMS_P2;Temp;Humidity;BMP_temperature;BMP_pressure;BME280_temperature;BME280_humidity;BME280_pressure;Samples;Min_cycle;Max_cycle;Signal;HPM_P1;HPM_P2
2022/04/06 00:01:35;;;;;;;13.50;6.88;;;;;;;9.56;80.70;99986.34;6201204;23;20072;-86
2022/04/06 00:04:04;;;;;;;12.88;6.88;;;;;;;9.55;81.10;99984.72;6196778;23;20017;-87
2022/04/06 00:06:30;;;;;;;15.48;6.57;;;;;;;9.59;81.11;99991.25;6194800;23;20092;-89
2022/04/06 00:08:57;;;;;;;16.52;7.13;;;;;;;9.63;80.68;99986.50;6193398;23;20020;-87
2022/04/06 00:11:24;;;;;;;12.60;6.55;;;;;;;9.53;80.98;99980.63;6195602;23;20025;-88
2022/04/06 00:13:51;;;;;;;22.15;6.80;;;;;;;9.57;81.50;99993.19;6195702;23;20052;-87
2022/04/06 00:16:18;;;;;;;12.18;6.22;;;;;;;9.51;80.99;99977.38;6195512;23;20021;-87
2022/04/06 00:18:44;;;;;;;17.05;6.80;;;;;;;9.56;80.64;99982.91;6195677;23;20033;-87
2022/04/06 00:21:14;;;;;;;15.40;6.32;;;;;;;9.57;80.26;99981.94;6196299;23;20040;-87
2022/04/06 00:23:41;;;;;;;14.95;6.57;;;;;;;9.50;80.99;99976.56;6197262;23;20441;-87
2022/04/06 00:26:08;;;;;;;15.32;6.45;;;;;;;9.50;80.50;99976.56;6196916;23;20021;-87
2022/04/06 00:28:34;;;;;;;17.23;6.45;;;;;;;9.48;80.49;99978.50;6195445;23;20056;-89
2022/04/06 00:31:01;;;;;;;15.35;6.28;;;;;;;9.49;80.18;99980.16;6194626;23;20024;-87
2022/04/06 00:33:28;;;;;;;18.17;6.50;;;;;;;9.51;80.21;99978.19;6193748;23;20016;-87
2022/04/06 00:35:56;;;;;;;12.55;6.28;;;;;;;9.43;80.37;99969.56;6195081;23;20025;-88
2022/04/06 00:38:24;;;;;;;10.02;5.72;;;;;;;9.40;80.52;99968.09;6194208;23;20052;-87
2022/04/06 00:40:51;;;;;;;11.55;5.60;;;;;;;9.46;80.13;99970.03;6193287;23;20458;-88
2022/04/06 00:43:17;;;;;;;9.60;5.63;;;;;;;9.46;80.17;99972.63;6194232;23;20406;-88
2022/04/06 00:45:44;;;;;;;13.73;6.15;;;;;;;9.44;80.13;99965.97;6194173;23;20087;-87
2022/04/06 00:48:11;;;;;;;14.95;5.60;;;;;;;9.42;80.10;99966.13;6191558;23;20024;-87
2022/04/06 00:50:41;;;;;;;15.55;5.93;;;;;;;9.41;80.30;99959.28;6192521;23;20044;-87
2022/04/06 00:53:08;;;;;;;16.30;5.93;;;;;;;9.39;80.51;99955.22;6192108;23;20013;-87
2022/04/06 00:55:39;;;;;;;13.55;6.00;;;;;;;9.35;81.16;99966.97;6195524;23;20025;-87
2022/04/06 00:58:07;;;;;;;11.30;5.47;;;;;;;9.30;80.85;99954.41;6192456;23;20025;-87
2022/04/06 01:00:33;;;;;;;16.40;6.10;;;;;;;9.35;80.55;99961.72;6191634;23;20021;-87
2022/04/06 01:03:01;;;;;;;13.75;6.25;;;;;;;9.31;80.71;99956.03;6193345;23;20025;-87
2022/04/06 01:05:28;;;;;;;14.88;5.55;;;;;;;9.38;80.27;99957.00;6194043;23;20036;-87
2022/04/06 01:07:59;;;;;;;15.32;6.75;;;;;;;9.29;80.66;99950.97;6192776;23;20017;-88
2022/04/06 01:10:25;;;;;;;13.93;5.65;;;;;;;9.34;80.48;99939.22;6194771;23;20319;-87
2022/04/06 01:12:55;;;;;;;9.70;5.40;;;;;;;9.35;80.53;99946.88;6193366;23;20060;-87
2022/04/06 01:15:23;;;;;;;12.60;5.53;;;;;;;9.30;80.87;99941.34;6193035;23;20331;-88
2022/04/06 01:17:49;;;;;;;12.65;5.35;;;;;;;9.27;80.52;99941.66;6193408;23;20081;-87
2022/04/06 01:20:16;;;;;;;16.08;5.38;;;;;;;9.28;80.36;99940.69;6194149;23;20051;-87
2022/04/06 01:22:45;;;;;;;12.60;5.65;;;;;;;9.31;79.96;99942.97;6194764;23;20029;-87
2022/04/06 01:25:11;;;;;;;11.98;4.88;;;;;;;9.28;79.95;99945.91;6192236;23;20021;-88
2022/04/06 01:27:38;;;;;;;13.82;4.78;;;;;;;9.33;79.89;99930.56;6191796;23;20021;-87
2022/04/06 01:30:06;;;;;;;12.88;5.30;;;;;;;9.23;79.96;99935.94;6192792;23;20036;-87
2022/04/06 01:32:35;;;;;;;16.08;5.50;;;;;;;9.27;80.28;99939.88;6196818;23;20402;-88
2022/04/06 01:35:02;;;;;;;15.88;4.93;;;;;;;9.26;80.45;99943.47;6195298;23;20013;-88
2022/04/06 01:37:29;;;;;;;12.57;5.13;;;;;;;9.27;80.19;99941.66;6193600;23;20474;-88
2022/04/06 01:39:57;;;;;;;10.82;5.32;;;;;;;9.24;80.41;99942.81;6192884;23;20378;-88
2022/04/06 01:42:24;;;;;;;11.00;5.13;;;;;;;9.27;79.93;99939.88;6191694;23;20039;-87
2022/04/06 01:44:52;;;;;;;13.43;5.18;;;;;;;9.30;79.72;99933.50;6192515;23;20025;-88
2022/04/06 01:47:20;;;;;;;12.20;5.30;;;;;;;9.30;79.74;99936.94;6191945;23;20021;-88
2022/04/06 01:52:32;;;;;;;9.10;4.75;;;;;;;9.22;80.50;99938.72;6192112;23;20056;-88
2022/04/06 01:55:02;;;;;;;14.15;5.28;;;;;;;9.22;79.82;99913.44;6190883;23;20032;-88
2022/04/06 01:57:30;;;;;;;12.00;5.72;;;;;;;9.27;79.62;99931.22;6190761;23;20020;-88
2022/04/06 01:59:57;;;;;;;11.73;5.00;;;;;;;9.22;80.27;99925.69;6190875;23;20036;-88
2022/04/06 02:02:26;;;;;;;15.55;5.47;;;;;;;9.21;80.04;99924.03;6191668;23;20060;-89
2022/04/06 02:04:53;;;;;;;14.70;5.47;;;;;;;9.19;80.13;99912.94;6192948;23;20031;-88
2022/04/06 02:07:20;;;;;;;15.10;5.40;;;;;;;9.19;80.29;99919.00;6191590;23;20194;-88
2022/04/06 02:09:46;;;;;;;13.55;5.28;;;;;;;9.20;80.19;99917.19;6191876;23;20167;-88
2022/04/06 02:12:14;;;;;;;13.57;5.18;;;;;;;9.22;80.45;99913.44;6192330;23;20021;-88
2022/04/06 02:14:42;;;;;;;16.08;5.38;;;;;;;9.19;80.19;99920.78;6191184;23;20303;-87
2022/04/06 02:17:10;;;;;;;13.32;5.28;;;;;;;9.20;80.17;99917.19;6192387;23;20025;-87
2022/04/06 02:19:37;;;;;;;11.85;5.93;;;;;;;9.18;80.43;99919.97;6191358;23;20049;-87
2022/04/06 02:22:05;;;;;;;13.65;5.10;;;;;;;9.19;80.47;99920.78;6191377;23;20041;-88
2022/04/06 02:24:32;;;;;;;11.93;5.00;;;;;;;9.20;80.63;99917.19;6192084;23;20017;-88
2022/04/06 02:26:58;;;;;;;11.20;5.57;;;;;;;9.15;80.78;99901.22;6191176;23;20068;-88
2022/04/06 02:29:26;;;;;;;14.25;5.80;;;;;;;9.19;80.28;99907.72;6190663;23;20063;-88
2022/04/06 02:31:53;;;;;;;9.30;5.18;;;;;;;9.25;80.31;99915.72;6190967;23;20040;-88
2022/04/06 02:34:20;;;;;;;17.65;7.28;;;;;;;9.16;80.79;99905.44;6190511;23;20073;-88
2022/04/06 02:36:47;;;;;;;10.48;5.10;;;;;;;9.15;81.49;99909.84;6190773;23;20036;-88
2022/04/06 02:39:13;;;;;;;13.32;5.88;;;;;;;9.09;81.28;99912.31;6190894;23;20072;-88
2022/04/06 02:41:40;;;;;;;10.95;6.20;;;;;;;9.13;81.21;99898.75;6191762;23;20062;-88
2022/04/06 02:44:07;;;;;;;18.05;5.90;;;;;;;9.09;81.28;99905.28;6192005;23;20108;-87
2022/04/06 02:46:35;;;;;;;11.25;5.50;;;;;;;9.16;80.73;99900.22;6191001;23;20052;-88
2022/04/06 02:49:02;;;;;;;16.98;7.00;;;;;;;9.09;81.07;99902.66;6191619;23;20024;-88
2022/04/06 02:51:28;;;;;;;13.77;5.78;;;;;;;9.11;81.47;99898.09;6191942;23;20362;-88
2022/04/06 02:53:55;;;;;;;16.05;5.90;;;;;;;9.08;81.49;99895.00;6191641;23;20402;-88
2022/04/06 02:56:22;;;;;;;14.02;6.70;;;;;;;9.14;80.74;99902.19;6191273;23;20021;-88
2022/04/06 02:58:48;;;;;;;10.95;6.65;;;;;;;9.13;81.12;99893.53;6191612;23;20067;-88
2022/04/06 03:01:15;;;;;;;15.23;6.15;;;;;;;9.08;81.00;99903.66;6194218;23;20047;-88
2022/04/06 03:03:43;;;;;;;12.45;5.75;;;;;;;9.11;81.09;99897.28;6193279;23;20028;-88
2022/04/06 03:06:10;;;;;;;10.85;5.38;;;;;;;9.13;81.24;99890.13;6190729;23;20343;-88
2022/04/06 03:08:37;;;;;;;12.63;5.72;;;;;;;9.08;81.48;99888.00;6192076;23;20056;-88
2022/04/06 03:11:03;;;;;;;12.18;6.57;;;;;;;9.09;81.16;99889.63;6191399;23;20025;-88
2022/04/06 03:13:30;;;;;;;13.68;6.03;;;;;;;9.08;81.28;99898.44;6191831;23;20288;-88
2022/04/06 03:15:58;;;;;;;13.75;6.28;;;;;;;9.05;81.65;99890.94;6194917;23;20112;-88
2022/04/06 03:18:24;;;;;;;14.15;6.88;;;;;;;9.07;81.56;99896.00;6192017;23;20350;-88
2022/04/06 03:20:53;;;;;;;12.32;5.95;;;;;;;9.07;81.54;99890.78;6192302;23;20029;-88
2022/04/06 03:23:21;;;;;;;13.20;6.20;;;;;;;9.01;81.58;99891.41;6191752;23;20068;-88
2022/04/06 03:25:48;;;;;;;15.57;6.38;;;;;;;9.03;81.52;99881.63;6192716;23;20025;-88
2022/04/06 03:28:15;;;;;;;17.90;6.78;;;;;;;9.05;80.96;99883.09;6191871;23;20057;-88
2022/04/06 03:30:42;;;;;;;18.00;6.35;;;;;;;9.03;81.29;99892.06;6191214;23;20343;-88
2022/04/06 03:33:09;;;;;;;10.13;6.05;;;;;;;9.01;81.27;99873.97;6191893;23;20021;-88
2022/04/06 03:35:36;;;;;;;12.77;6.40;;;;;;;9.02;81.74;99888.66;6192901;23;20055;-88
2022/04/06 03:38:05;;;;;;;12.45;6.18;;;;;;;8.97;81.82;99881.34;6194036;23;20053;-88
2022/04/06 03:40:31;;;;;;;11.73;5.90;;;;;;;8.99;81.45;99881.97;6195443;23;20021;-88
2022/04/06 03:42:58;;;;;;;11.23;6.07;;;;;;;8.92;81.70;99878.41;6196181;23;20049;-88
2022/04/06 03:45:26;;;;;;;11.50;6.13;;;;;;;8.95;81.89;99879.88;6195326;23;20470;-88
2022/04/06 03:47:52;;;;;;;13.80;5.88;;;;;;;8.95;81.46;99883.28;6195376;23;20041;-88
2022/04/06 03:50:19;;;;;;;9.50;6.20;;;;;;;8.93;81.18;99874.00;6194722;23;20044;-88
2022/04/06 03:52:47;;;;;;;14.57;6.20;;;;;;;8.94;81.67;99867.81;6196528;23;20021;-87
2022/04/06 03:55:15;;;;;;;13.48;6.45;;;;;;;9.04;80.48;99878.88;6196351;23;20451;-87
2022/04/06 03:57:41;;;;;;;12.10;6.18;;;;;;;9.03;80.24;99874.63;6194635;23;20431;-87
2022/04/06 04:00:09;;;;;;;11.07;6.47;;;;;;;9.06;80.24;99868.25;6195767;23;20021;-88
2022/04/06 04:02:37;;;;;;;10.55;6.25;;;;;;;9.04;80.75;99872.81;6196226;23;20021;-87
2022/04/06 04:05:05;;;;;;;13.27;6.78;;;;;;;8.92;80.99;99857.53;6196198;23;20060;-88
2022/04/06 04:07:31;;;;;;;14.15;6.32;;;;;;;8.92;80.40;99862.75;6195336;23;20369;-88
2022/04/06 04:09:58;;;;;;;12.65;6.20;;;;;;;8.97;79.67;99860.47;6197188;23;20037;-87
2022/04/06 04:12:26;;;;;;;14.15;5.70;;;;;;;8.95;80.51;99872.84;6198347;23;20482;-89
2022/04/06 04:14:53;;;;;;;12.98;6.00;;;;;;;8.93;79.87;99872.22;6197554;23;20028;-88
2022/04/06 04:17:19;;;;;;;8.80;5.93;;;;;;;8.88;79.06;99852.81;6196942;23;20092;-88
2022/04/06 04:19:47;;;;;;;9.68;5.93;;;;;;;8.87;79.75;99854.59;6200120;23;20048;-88
2022/04/06 04:22:14;;;;;;;14.07;6.05;;;;;;;9.01;79.41;99867.94;6203502;23;20040;-88
2022/04/06 04:24:40;;;;;;;15.77;6.40;;;;;;;8.90;79.66;99851.66;6204558;23;20029;-89
2022/04/06 04:27:07;;;;;;;14.35;5.97;;;;;;;8.90;80.11;99862.09;6204915;23;20021;-89
2022/04/06 04:29:36;;;;;;;9.90;6.25;;;;;;;8.88;78.80;99845.78;6205204;23;20032;-89
2022/04/06 04:32:03;;;;;;;10.85;6.05;;;;;;;8.90;79.50;99850.84;6208996;23;20024;-89
2022/04/06 04:34:29;;;;;;;12.15;5.70;;;;;;;8.89;79.55;99859.66;6206360;23;20021;-89
2022/04/06 04:36:57;;;;;;;14.60;6.72;;;;;;;8.74;79.89;99843.81;6205919;23;20025;-89
2022/04/06 04:39:23;;;;;;;12.35;6.03;;;;;;;8.85;79.76;99860.94;6208903;23;20021;-89
2022/04/06 04:41:50;;;;;;;12.80;6.38;;;;;;;8.83;80.46;99860.28;6212653;23;20025;-89
2022/04/06 04:44:17;;;;;;;13.05;6.70;;;;;;;8.84;80.00;99859.31;6212542;23;20013;-90
2022/04/06 04:46:45;;;;;;;11.70;6.20;;;;;;;8.82;79.85;99856.88;6212949;23;20021;-90
2022/04/06 04:49:12;;;;;;;13.35;7.55;;;;;;;8.85;79.33;99851.34;6212566;23;20025;-90
2022/04/06 04:51:39;;;;;;;11.63;7.70;;;;;;;8.89;79.50;99847.41;6213540;23;20013;-90
2022/04/06 04:54:05;;;;;;;14.80;6.60;;;;;;;8.86;79.47;99842.53;6213142;23;20052;-89
2022/04/06 04:56:33;;;;;;;17.73;6.70;;;;;;;8.84;79.60;99849.69;6208005;23;20013;-89
2022/04/06 04:59:00;;;;;;;13.70;6.60;;;;;;;8.84;79.92;99857.53;6193663;23;20028;-91
2022/04/06 05:01:27;;;;;;;11.57;6.00;;;;;;;8.86;79.31;99847.75;6193590;23;20109;-90
2022/04/06 05:03:55;;;;;;;14.07;6.88;;;;;;;8.86;79.18;99857.38;6190446;23;20025;-88
2022/04/06 05:06:23;;;;;;;10.63;5.97;;;;;;;8.79;79.34;99836.34;6191429;23;20043;-89
2022/04/06 05:08:52;;;;;;;11.05;6.50;;;;;;;8.73;79.68;99826.53;6191522;23;20455;-89
2022/04/06 05:11:19;;;;;;;14.57;6.82;;;;;;;8.80;79.64;99843.19;6197130;23;20005;-91
2022/04/06 05:13:46;;;;;;;13.30;6.88;;;;;;;8.85;79.99;99851.34;6212710;23;20017;-90
2022/04/06 05:16:17;;;;;;;13.40;6.47;;;;;;;8.85;79.93;99845.31;6213140;23;20012;-91
2022/04/06 05:18:43;;;;;;;11.93;5.82;;;;;;;8.80;79.29;99839.75;6213114;23;20008;-91
2022/04/06 05:21:11;;;;;;;13.40;6.75;;;;;;;8.80;79.37;99831.94;6212790;23;20009;-90
2022/04/06 05:23:41;;;;;;;10.57;5.90;;;;;;;8.90;79.61;99858.66;6204485;23;20048;-90
2022/04/06 05:26:09;;;;;;;14.70;6.00;;;;;;;8.83;78.99;99842.03;6198673;23;20044;-90
2022/04/06 05:29:00;;;;;;;10.77;5.43;;;;;;;8.94;78.87;99854.75;6196896;23;20027;-84
2022/04/06 05:37:22;;;;;;;11.48;5.55;;;;;;;8.92;79.41;99856.72;6208923;23;20025;-85
2022/04/06 06:00:08;;;;;;;11.48;4.43;;;;;;;8.97;76.87;99823.13;5994172;23;20094;-81
2022/04/06 06:02:35;;;;;;;7.85;4.53;;;;;;;8.96;76.87;99837.97;5958221;24;20025;-82
2022/04/06 06:05:02;;;;;;;11.98;4.80;;;;;;;9.04;77.19;99844.13;6034558;23;20528;-83
2022/04/06 06:07:29;;;;;;;10.65;4.40;;;;;;;8.98;77.31;99848.19;6149336;23;20413;-83
2022/04/06 06:09:58;;;;;;;13.00;4.68;;;;;;;8.97;77.64;99844.00;6194016;23;20025;-82
2022/04/06 06:12:26;;;;;;;11.93;4.75;;;;;;;9.01;77.60;99849.66;6191673;23;20025;-83
2022/04/06 06:14:53;;;;;;;9.10;4.30;;;;;;;9.00;77.53;99841.03;6192205;23;20028;-82
2022/04/06 06:17:19;;;;;;;12.68;4.50;;;;;;;9.02;77.52;99835.63;6192789;23;20052;-82
2022/04/06 06:19:46;;;;;;;14.15;4.50;;;;;;;9.02;76.72;99854.72;6191359;23;20100;-85
2022/04/06 06:22:12;;;;;;;10.07;4.70;;;;;;;9.04;76.40;99844.13;6192522;23;20056;-82
2022/04/06 06:24:42;;;;;;;12.02;4.47;;;;;;;9.01;76.56;99845.25;6202243;23;20362;-80
2022/04/06 06:27:08;;;;;;;8.02;4.07;;;;;;;9.06;76.87;99837.75;6199644;23;20028;-82
2022/04/06 06:29:36;;;;;;;9.07;4.20;;;;;;;9.05;76.59;99840.53;6195626;23;20505;-80
2022/04/06 06:32:07;;;;;;;12.23;4.20;;;;;;;9.14;74.71;99844.75;6198706;23;20025;-82
2022/04/06 06:34:34;;;;;;;9.35;4.40;;;;;;;9.22;75.51;99844.75;6204036;23;20076;-84
2022/04/06 06:37:01;;;;;;;9.68;4.03;;;;;;;9.26;75.33;99846.06;6200804;23;20025;-86
2022/04/06 06:39:27;;;;;;;9.18;3.75;;;;;;;9.23;75.79;99852.41;6204885;23;20025;-84
2022/04/06 06:41:54;;;;;;;7.35;4.00;;;;;;;9.23;75.71;99851.59;6203738;23;20032;-84
2022/04/06 06:44:21;;;;;;;9.50;3.83;;;;;;;9.23;75.73;99849.81;6202233;23;20028;-84
2022/04/06 06:46:49;;;;;;;8.75;4.72;;;;;;;9.23;75.71;99849.00;6199830;23;20043;-84
2022/04/06 06:49:16;;;;;;;8.82;4.30;;;;;;;9.33;75.25;99852.25;6197583;23;20044;-84
2022/04/06 06:51:43;;;;;;;9.80;3.97;;;;;;;9.28;74.88;99846.69;6197748;23;20071;-84
2022/04/06 06:54:09;;;;;;;7.10;4.35;;;;;;;9.31;75.28;99847.19;6197101;23;20025;-84
2022/04/06 06:56:36;;;;;;;9.57;3.88;;;;;;;9.28;75.22;99846.69;6192067;23;20021;-83
2022/04/06 06:59:02;;;;;;;8.18;3.92;;;;;;;9.34;74.63;99846.03;6197131;23;20025;-84
2022/04/06 07:01:29;;;;;;;8.00;3.47;;;;;;;9.31;75.57;99834.13;6189963;23;20410;-82
2022/04/06 07:03:57;;;;;;;5.65;3.70;;;;;;;9.35;74.79;99833.81;6189355;23;20100;-83
2022/04/06 07:06:24;;;;;;;9.48;4.38;;;;;;;9.44;74.80;99827.56;6189183;23;20100;-83
2022/04/06 07:08:52;;;;;;;7.75;4.05;;;;;;;9.49;74.26;99843.53;6188080;23;20032;-81
2022/04/06 07:11:18;;;;;;;11.98;3.80;;;;;;;9.56;74.30;99831.44;6189743;23;20029;-81
2022/04/06 07:13:45;;;;;;;8.07;4.35;;;;;;;9.52;73.86;99827.53;6189364;23;20055;-79
2022/04/06 07:16:14;;;;;;;11.05;4.10;;;;;;;9.51;74.05;99833.72;6190598;23;20100;-81
2022/04/06 07:18:41;;;;;;;13.30;4.53;;;;;;;9.53;73.57;99835.19;6198252;23;20072;-82
2022/04/06 07:21:09;;;;;;;8.10;3.95;;;;;;;9.56;73.69;99842.69;6206083;23;20025;-81
2022/04/06 07:23:36;;;;;;;8.32;3.70;;;;;;;9.48;73.84;99834.06;6205424;23;20055;-81
2022/04/06 07:26:03;;;;;;;7.80;3.75;;;;;;;9.42;73.99;99827.75;6198225;23;20446;-83
2022/04/06 07:28:30;;;;;;;9.63;4.10;;;;;;;9.45;74.11;99826.59;6189271;23;20358;-81
2022/04/06 07:30:56;;;;;;;9.60;4.25;;;;;;;9.49;74.78;99827.84;6190000;23;20053;-80
2022/04/06 07:33:23;;;;;;;9.10;4.03;;;;;;;9.54;74.21;99823.75;6189481;23;20024;-80
2022/04/06 07:35:49;;;;;;;8.50;3.75;;;;;;;9.58;74.41;99819.84;6188277;23;20044;-82
2022/04/06 07:38:18;;;;;;;14.32;4.13;;;;;;;9.60;73.98;99817.06;6188306;23;20048;-81
2022/04/06 07:40:45;;;;;;;11.50;4.10;;;;;;;9.53;73.57;99796.03;6189121;23;20095;-82
2022/04/06 07:43:12;;;;;;;8.00;3.60;;;;;;;9.48;74.26;99808.75;6189067;23;20049;-80
2022/04/06 07:45:40;;;;;;;6.68;3.60;;;;;;;9.43;74.41;99816.31;6189243;23;20025;-82
2022/04/06 07:48:06;;;;;;;8.80;3.47;;;;;;;9.53;73.33;99803.84;6188538;23;20025;-82
2022/04/06 07:50:33;;;;;;;10.18;5.18;;;;;;;9.54;72.75;99800.25;6188707;23;20105;-81
2022/04/06 07:53:00;;;;;;;7.53;3.45;;;;;;;9.58;73.43;99798.94;6190302;23;20024;-82
2022/04/06 07:55:28;;;;;;;8.13;3.60;;;;;;;9.59;72.99;99797.94;6190211;23;20021;-81
2022/04/06 07:57:54;;;;;;;4.35;3.28;;;;;;;9.62;72.35;99802.84;6189864;23;20048;-80
2022/04/06 08:00:21;;;;;;;11.68;3.83;;;;;;;9.63;72.09;99791.41;6189715;23;20052;-81
2022/04/06 08:02:50;;;;;;;5.80;3.10;;;;;;;9.61;72.92;99801.22;6190158;23;20064;-80
2022/04/06 08:05:18;;;;;;;7.60;3.47;;;;;;;9.60;71.62;99814.44;6190849;23;20095;-81
2022/04/06 08:07:45;;;;;;;5.53;3.10;;;;;;;9.57;71.30;99802.53;6189812;23;20100;-79
2022/04/06 08:10:13;;;;;;;5.03;3.15;;;;;;;9.63;72.38;99796.63;6190086;23;20060;-81
2022/04/06 08:12:42;;;;;;;5.20;3.00;;;;;;;9.60;69.67;99799.59;6189872;23;20032;-81
2022/04/06 08:15:10;;;;;;;6.35;3.10;;;;;;;9.60;70.53;99798.78;6189939;23;20021;-81
2022/04/06 08:17:38;;;;;;;4.95;2.92;;;;;;;9.65;70.79;99799.91;6190820;23;20048;-81
2022/04/06 08:20:08;;;;;;;7.15;3.05;;;;;;;9.57;71.00;99807.75;6189640;23;20471;-81
2022/04/06 08:22:37;;;;;;;6.60;3.08;;;;;;;9.65;69.35;99810.34;6190814;23;20028;-80
2022/04/06 08:25:14;;;;;;;6.90;3.20;;;;;;;9.62;69.48;99802.03;6191485;23;20361;-80
2022/04/06 08:27:42;;;;;;;8.52;3.22;;;;;;;9.68;69.38;99805.75;6192609;23;20032;-81
2022/04/06 08:30:12;;;;;;;6.45;3.67;;;;;;;9.74;69.39;99811.13;6191478;23;20056;-83
2022/04/06 08:32:39;;;;;;;7.25;3.30;;;;;;;9.67;69.52;99796.28;6193671;23;20072;-82
2022/04/06 08:35:08;;;;;;;5.55;3.30;;;;;;;9.71;69.39;99810.66;6190501;23;20458;-81
2022/04/06 08:37:39;;;;;;;6.97;3.58;;;;;;;9.64;69.77;99800.88;6191585;23;20474;-80
2022/04/06 08:40:09;;;;;;;13.00;3.40;;;;;;;9.64;69.00;99815.72;6191590;23;20013;-81
2022/04/06 08:42:43;;;;;;;7.80;3.78;;;;;;;9.61;69.67;99811.66;6190747;23;20101;-82
2022/04/06 08:45:10;;;;;;;8.82;3.50;;;;;;;9.63;69.57;99809.69;6191933;23;20171;-81
2022/04/06 08:47:37;;;;;;;7.72;3.65;;;;;;;9.59;70.15;99812.81;6192829;23;20373;-82
2022/04/06 08:50:07;;;;;;;9.35;3.42;;;;;;;9.64;69.93;99806.09;6193539;23;20047;-78
2022/04/06 08:52:35;;;;;;;8.73;3.60;;;;;;;9.64;68.33;99816.53;6195638;23;20068;-81
2022/04/06 08:55:02;;;;;;;5.95;3.42;;;;;;;9.63;69.34;99804.47;6195893;23;20048;-83
2022/04/06 08:57:28;;;;;;;8.40;3.58;;;;;;;9.68;68.46;99803.16;6195305;23;20021;-83
2022/04/06 08:59:57;;;;;;;8.43;3.22;;;;;;;9.77;69.36;99797.72;6196028;23;20025;-81
2022/04/06 09:02:23;;;;;;;7.63;3.40;;;;;;;9.72;67.71;99796.59;6196493;23;20362;-82
2022/04/06 09:04:52;;;;;;;6.78;3.60;;;;;;;9.72;67.59;99792.19;6195207;23;20025;-82
2022/04/06 09:07:21;;;;;;;5.25;3.00;;;;;;;9.81;67.56;99798.19;6197067;23;20048;-83
2022/04/06 09:09:51;;;;;;;7.88;3.38;;;;;;;9.81;68.27;99791.16;6194348;23;20031;-82
2022/04/06 09:12:20;;;;;;;7.13;3.75;;;;;;;9.90;67.20;99800.59;6195181;23;20488;-82
2022/04/06 09:14:48;;;;;;;7.63;3.50;;;;;;;9.95;67.12;99787.81;6193840;23;20077;-82
2022/04/06 09:17:20;;;;;;;8.07;4.47;;;;;;;10.09;66.89;99781.03;6193604;23;20028;-81
2022/04/06 09:19:49;;;;;;;7.25;3.53;;;;;;;10.38;66.09;99785.59;6190621;23;20350;-83
2022/04/06 09:22:16;;;;;;;7.10;3.85;;;;;;;10.79;65.83;99788.69;6189776;23;20081;-82
2022/04/06 09:24:43;;;;;;;8.93;3.35;;;;;;;10.82;64.40;99780.47;6190934;23;20064;-79
2022/04/06 09:27:09;;;;;;;7.57;3.00;;;;;;;10.96;63.60;99778.84;6191402;23;20024;-80
2022/04/06 09:29:43;;;;;;;8.68;3.17;;;;;;;10.93;63.53;99771.38;6191247;23;20073;-80
2022/04/06 09:32:11;;;;;;;4.97;3.25;;;;;;;11.00;64.51;99777.50;6192227;23;20025;-81
2022/04/06 09:34:39;;;;;;;8.43;3.00;;;;;;;11.19;63.22;99766.50;6192825;23;20040;-80
2022/04/06 09:37:27;;;;;;;5.97;3.00;;;;;;;11.35;63.04;99770.72;6191495;23;20325;-78
2022/04/06 09:39:56;;;;;;;7.95;2.90;;;;;;;11.41;62.38;99774.44;6191298;23;20361;-78
2022/04/06 09:42:27;;;;;;;6.53;2.72;;;;;;;11.61;62.02;99773.69;6191156;23;20084;-79
2022/04/06 09:47:42;;;;;;;8.15;2.90;;;;;;;11.84;61.39;99765.72;6188953;23;20109;-80
2022/04/06 09:50:20;;;;;;;6.43;3.25;;;;;;;11.84;61.57;99765.72;6187793;23;20028;-79
2022/04/06 09:52:48;;;;;;;8.30;3.20;;;;;;;11.95;62.06;99761.78;6189790;23;20344;-79
2022/04/06 09:55:16;;;;;;;6.55;3.10;;;;;;;12.09;61.74;99755.69;6190185;23;20095;-79
2022/04/06 09:57:45;;;;;;;7.85;2.70;;;;;;;11.95;61.06;99757.34;6188602;23;20036;-80
2022/04/06 10:00:17;;;;;;;4.72;2.80;;;;;;;11.59;62.08;99759.97;6193259;23;20025;-79
2022/04/06 10:02:45;;;;;;;6.20;2.83;;;;;;;11.68;61.62;99752.81;6189939;23;20067;-80
2022/04/06 10:05:14;;;;;;;8.35;3.10;;;;;;;11.58;62.04;99755.72;6189004;23;20092;-79
2022/04/06 10:07:43;;;;;;;11.43;3.08;;;;;;;11.67;61.80;99758.25;6187737;23;20103;-78
2022/04/06 10:10:12;;;;;;;4.28;2.70;;;;;;;11.58;62.11;99762.75;6187216;23;20021;-79
2022/04/06 10:12:40;;;;;;;7.10;2.83;;;;;;;11.43;62.30;99760.16;6188216;23;20025;-79
2022/04/06 10:15:08;;;;;;;7.10;3.00;;;;;;;11.32;63.16;99752.78;6187197;23;20056;-80
2022/04/06 10:17:36;;;;;;;9.82;3.10;;;;;;;11.29;63.01;99745.28;6190354;23;20464;-82
2022/04/06 10:20:16;;;;;;;5.85;3.15;;;;;;;11.14;63.73;99736.63;6188996;23;20028;-79
2022/04/06 10:23:01;;;;;;;5.20;3.30;;;;;;;10.99;64.80;99734.00;6190719;23;20036;-80
2022/04/06 10:25:43;;;;;;;5.07;2.97;;;;;;;10.98;63.87;99727.94;6189583;23;20021;-80
2022/04/06 10:28:12;;;;;;;9.40;2.85;;;;;;;11.10;65.11;99741.41;6192412;23;20039;-80
2022/04/06 10:30:39;;;;;;;6.07;2.90;;;;;;;11.18;65.29;99732.66;6193019;23;20025;-78
2022/04/06 10:33:20;;;;;;;8.48;3.72;;;;;;;11.21;64.50;99742.75;6193144;23;20021;-81
2022/04/06 10:35:47;;;;;;;9.73;3.75;;;;;;;11.24;64.63;99747.66;6187500;23;20050;-80
2022/04/06 10:38:18;;;;;;;6.35;4.40;;;;;;;11.14;65.02;99741.88;6188931;23;20104;-80
2022/04/06 10:40:58;;;;;;;5.93;3.65;;;;;;;11.13;64.80;99746.28;6189069;23;20104;-80
2022/04/06 10:43:50;;;;;;;9.95;4.35;;;;;;;11.25;64.57;99736.19;6186800;23;20021;-80
2022/04/06 10:46:19;;;;;;;6.85;3.97;;;;;;;11.33;65.54;99736.09;6182149;23;20031;-80
2022/04/06 10:49:13;;;;;;;6.35;3.30;;;;;;;11.39;65.02;99732.69;6188551;23;20021;-81
2022/04/06 10:51:41;;;;;;;6.25;3.17;;;;;;;11.38;66.01;99728.47;6185991;23;20025;-78
2022/04/06 10:54:46;;;;;;;6.15;3.33;;;;;;;11.35;64.82;99728.81;6188541;23;20021;-79
2022/04/06 10:57:13;;;;;;;9.35;3.70;;;;;;;11.40;65.28;99729.09;6188464;23;20028;-79
2022/04/06 10:59:40;;;;;;;9.02;3.60;;;;;;;11.69;65.48;99714.31;6188929;23;20074;-80
2022/04/06 11:02:30;;;;;;;5.55;3.38;;;;;;;11.80;64.34;99716.50;6189679;23;20045;-80
2022/04/06 11:04:57;;;;;;;7.68;3.78;;;;;;;12.06;64.08;99711.50;6183691;23;20025;-80
2022/04/06 11:10:32;;;;;;;5.07;3.20;;;;;;;12.30;62.53;99710.25;6151047;23;20056;-78
2022/04/06 11:13:03;;;;;;;6.18;3.10;;;;;;;12.04;62.97;99710.88;6186519;23;20092;-79
2022/04/06 11:15:38;;;;;;;8.35;3.15;;;;;;;12.15;62.55;99710.38;6187287;23;20486;-79
2022/04/06 11:18:06;;;;;;;6.20;3.55;;;;;;;12.03;63.33;99711.06;6187274;23;20029;-79
2022/04/06 11:20:34;;;;;;;6.97;3.67;;;;;;;11.78;63.91;99708.00;6187600;23;20025;-79
2022/04/06 11:23:01;;;;;;;7.55;3.00;;;;;;;11.63;64.28;99702.75;6188095;23;20084;-80
2022/04/06 11:25:30;;;;;;;5.15;2.80;;;;;;;11.70;63.59;99690.53;6188444;23;20032;-80
2022/04/06 11:28:11;;;;;;;6.15;3.10;;;;;;;11.89;63.68;99702.25;6192309;23;20056;-80
2022/04/06 11:30:43;;;;;;;6.50;3.00;;;;;;;12.12;64.15;99686.31;6192219;23;20079;-80
2022/04/06 11:33:10;;;;;;;5.70;3.03;;;;;;;12.39;63.02;99689.97;6194619;23;20052;-79
2022/04/06 11:35:40;;;;;;;3.85;2.45;;;;;;;12.29;62.00;99683.22;6202716;23;20284;-79
2022/04/06 11:38:15;;;;;;;5.65;2.92;;;;;;;12.39;61.84;99676.84;6201198;23;20060;-80
2022/04/06 11:40:47;;;;;;;7.05;2.70;;;;;;;12.51;62.10;99683.19;6195992;23;20024;-79
2022/04/06 11:43:15;;;;;;;4.47;2.60;;;;;;;12.59;62.15;99665.50;6192344;23;20075;-79
2022/04/06 11:45:44;;;;;;;7.32;2.90;;;;;;;12.78;62.66;99681.53;6192327;23;20025;-80
2022/04/06 11:48:17;;;;;;;6.78;2.97;;;;;;;12.75;62.11;99671.44;6190465;23;20025;-80
2022/04/06 14:46:47;;;;;;;4.22;3.03;;;;;;;12.06;67.04;99445.84;6183971;23;20017;-81
2022/04/06 15:32:26;;;;;;;3.30;2.60;;;;;;;12.12;66.85;99413.59;6179906;23;20099;-85
2022/04/06 15:49:51;;;;;;;;;;;;;;;;;;;;;
2022/04/06 15:56:35;;;;;;;3.47;2.75;;;;;;;12.22;66.62;99378.16;5928403;23;20062;-82
2022/04/06 16:23:56;;;;;;;3.72;2.70;;;;;;;12.16;65.38;99339.59;5911102;24;20029;-82
2022/04/06 16:59:32;;;;;;;10.40;4.25;;;;;;;11.86;65.44;99296.34;5891526;23;20047;-82
2022/04/06 17:02:05;;;;;;;5.47;4.00;;;;;;;11.86;66.06;99277.97;6044568;23;20019;-82
2022/04/06 17:08:11;;;;;;;9.18;4.40;;;;;;;11.80;65.90;99276.97;6032567;23;20027;-84
2022/04/06 17:13:47;;;;;;;;;;;;;;;;;;;;;
2022/04/06 17:16:21;;;;;;;6.45;4.13;;;;;;;11.84;66.28;99293.09;6070880;23;20025;-84
2022/04/06 17:18:50;;;;;;;5.97;4.32;;;;;;;11.88;65.89;99292.50;6072299;23;20023;-83
2022/04/06 17:21:20;;;;;;;8.00;4.50;;;;;;;11.75;65.92;99274.13;6104979;23;20052;-84
2022/04/06 17:30:38;;;;;;;;;;;;;;;;;;;;;